Time;durP1;ratioP1;P1;durP2;ratioP2;P2;SDS_P1;SDS_P2;PMS_P1;PMS_P2;Temp;Humidity;BMP_temperature;BMP_pressure;BME280_temperature;BME280_humidity;BME280_pressure;Samples;Min_cycle;Max_cycle;Signal;HPM_P1;HPM_P2
2022/12/20 00:00:12;;;;;;;;;;;16.50;48.70;;;;;;5093170;28;20369;-68
2022/12/20 00:02:37;;;;;;;;;;;16.50;48.70;;;;;;5093104;28;19927;-68
2022/12/20 00:05:03;;;;;;;;;;;16.50;48.70;;;;;;5092891;28;19931;-67
2022/12/20 00:07:29;;;;;;;;;;;16.50;48.70;;;;;;5093194;28;19920;-74
2022/12/20 00:09:54;;;;;;;;;;;16.50;48.70;;;;;;5074919;28;19920;-67
2022/12/20 00:12:20;;;;;;;;;;;16.50;48.70;;;;;;5074723;28;20014;-74
2022/12/20 00:14:48;;;;;;;;;;;16.50;48.70;;;;;;5074129;28;19971;-68
2022/12/20 00:17:14;;;;;;;;;;;16.50;48.70;;;;;;5075084;28;19924;-68
2022/12/20 00:19:39;;;;;;;;;;;16.40;48.70;;;;;;5093028;28;20283;-68
2022/12/20 00:22:05;;;;;;;;;;;16.40;48.70;;;;;;5092768;28;19920;-67
2022/12/20 00:24:31;;;;;;;;;;;16.50;48.70;;;;;;5074752;28;19979;-67
2022/12/20 00:26:57;;;;;;;;;;;16.40;48.60;;;;;;5074901;28;20283;-68
2022/12/20 00:29:22;;;;;;;;;;;16.40;48.60;;;;;;5092748;28;19920;-68
2022/12/20 00:31:48;;;;;;;;;;;16.40;48.60;;;;;;5092634;28;19924;-68
2022/12/20 00:34:13;;;;;;;;;;;16.40;48.60;;;;;;5074444;28;20363;-73
2022/12/20 00:36:39;;;;;;;;;;;16.40;48.60;;;;;;5074878;28;19920;-68
2022/12/20 00:39:05;;;;;;;;;;;16.50;48.70;;;;;;5092515;28;20288;-73
2022/12/20 00:41:31;;;;;;;;;;;16.40;49.40;;;;;;5057447;28;19920;-68
2022/12/20 00:43:57;;;;;;;;;;;16.40;48.60;;;;;;5074085;28;20367;-68
2022/12/20 00:46:23;;;;;;;;;;;16.40;48.60;;;;;;5074693;28;20057;-68
2022/12/20 00:48:49;;;;;;;;;;;16.40;48.60;;;;;;5092778;28;19943;-73
2022/12/20 00:51:16;;;;;;;;;;;16.40;48.70;;;;;;5074648;28;19931;-68
2022/12/20 00:53:42;;;;;;;;;;;16.40;48.60;;;;;;5091980;28;20371;-68
2022/12/20 00:56:08;;;;;;;;;;;16.40;48.70;;;;;;5073965;28;19923;-67
2022/12/20 00:58:35;;;;;;;;;;;16.80;48.20;;;;;;5092205;28;20320;-68
2022/12/20 01:01:00;;;;;;;;;;;17.30;47.30;;;;;;5074294;28;19920;-68
2022/12/20 01:03:26;;;;;;;;;;;17.80;46.30;;;;;;5092033;28;19985;-67
2022/12/20 01:05:52;;;;;;;;;;;18.20;45.30;;;;;;5092544;28;19993;-68
2022/12/20 01:08:18;;;;;;;;;;;18.60;44.40;;;;;;5074275;28;19926;-68
2022/12/20 01:10:44;;;;;;;;;;;18.90;43.60;;;;;;5092424;28;19920;-67
2022/12/20 01:13:09;;;;;;;;;;;19.10;43.00;;;;;;5091810;28;19943;-68
2022/12/20 01:15:35;;;;;;;;;;;19.30;42.60;;;;;;5074536;28;19924;-67
2022/12/20 01:18:01;;;;;;;;;;;19.30;42.30;;;;;;5092098;28;19927;-67
2022/12/20 01:20:26;;;;;;;;;;;19.30;42.20;;;;;;5092248;28;19920;-67
2022/12/20 01:22:52;;;;;;;;;;;19.20;42.20;;;;;;5073862;28;19920;-67
2022/12/20 01:25:17;;;;;;;;;;;19.20;42.30;;;;;;5074884;28;19920;-68
2022/12/20 01:27:43;;;;;;;;;;;19.00;42.40;;;;;;5078367;28;19924;-68
2022/12/20 01:30:09;;;;;;;;;;;18.90;42.70;;;;;;5078349;28;20402;-68
2022/12/20 01:32:34;;;;;;;;;;;18.80;43.00;;;;;;5077966;28;20335;-68
2022/12/20 01:35:00;;;;;;;;;;;18.70;43.30;;;;;;5077844;28;19927;-68
2022/12/20 01:37:25;;;;;;;;;;;18.50;43.40;;;;;;5077889;28;19942;-68
2022/12/20 01:39:51;;;;;;;;;;;18.40;43.70;;;;;;5095978;28;19927;-68
2022/12/20 01:42:16;;;;;;;;;;;18.20;43.90;;;;;;5077703;28;20333;-68
2022/12/20 01:47:24;;;;;;;;;;;18.00;44.40;;;;;;5089959;28;19919;-73
2022/12/20 01:49:51;;;;;;;;;;;17.90;44.70;;;;;;5088507;28;19920;-68
2022/12/20 01:52:19;;;;;;;;;;;17.80;44.90;;;;;;5088649;28;19921;-67
2022/12/20 01:57:30;;;;;;;;;;;17.60;45.20;;;;;;5089389;28;20273;-68
2022/12/20 01:59:56;;;;;;;;;;;17.60;45.50;;;;;;5088291;28;19927;-67
2022/12/20 02:02:22;;;;;;;;;;;17.40;45.60;;;;;;5088360;28;19920;-67
2022/12/20 02:04:47;;;;;;;;;;;17.40;45.80;;;;;;5088408;28;19932;-68
2022/12/20 02:07:17;;;;;;;;;;;17.30;45.90;;;;;;5088514;28;19921;-68
2022/12/20 02:09:43;;;;;;;;;;;17.30;46.10;;;;;;5088717;28;19928;-74
2022/12/20 02:12:10;;;;;;;;;;;17.20;46.20;;;;;;5088697;28;20279;-68
2022/12/20 02:17:29;;;;;;;;;;;17.10;46.50;;;;;;5089354;28;19912;-68
2022/12/20 02:20:15;;;;;;;;;;;17.10;46.60;;;;;;5088411;28;19924;-67
2022/12/20 02:25:37;;;;;;;;;;;17.00;46.70;;;;;;5089776;28;19912;-68
2022/12/20 02:28:22;;;;;;;;;;;17.00;46.80;;;;;;5088651;28;20048;-68
2022/12/20 02:30:50;;;;;;;;;;;16.90;46.80;;;;;;5088325;28;19921;-68
2022/12/20 02:33:16;;;;;;;;;;;16.90;46.80;;;;;;5088419;28;19968;-67
2022/12/20 02:35:42;;;;;;;;;;;17.00;46.80;;;;;;5088372;28;20489;-68
2022/12/20 02:38:25;;;;;;;;;;;17.10;46.70;;;;;;5088465;28;19947;-68
2022/12/20 02:40:53;;;;;;;;;;;17.20;46.50;;;;;;5088411;28;19920;-67
2022/12/20 02:46:04;;;;;;;;;;;17.50;45.90;;;;;;5088437;28;19920;-67
2022/12/20 02:48:31;;;;;;;;;;;17.60;45.70;;;;;;5088580;28;20293;-67
2022/12/20 02:50:58;;;;;;;;;;;17.70;45.40;;;;;;5089531;28;20269;-67
2022/12/20 02:53:24;;;;;;;;;;;17.80;45.20;;;;;;5089116;28;19920;-67
2022/12/20 02:55:52;;;;;;;;;;;17.90;45.00;;;;;;5089178;28;19927;-67
2022/12/20 02:58:37;;;;;;;;;;;17.90;44.90;;;;;;5088360;28;19927;-67
2022/12/20 03:01:06;;;;;;;;;;;17.90;44.90;;;;;;5089117;28;19932;-67
2022/12/20 03:03:32;;;;;;;;;;;17.90;44.80;;;;;;5089117;28;19947;-69
2022/12/20 03:05:58;;;;;;;;;;;17.90;44.80;;;;;;5088184;28;19927;-68
2022/12/20 03:08:24;;;;;;;;;;;17.90;44.90;;;;;;5088191;28;20010;-69
2022/12/20 03:10:50;;;;;;;;;;;17.80;44.90;;;;;;5089091;28;19920;-67
2022/12/20 03:13:16;;;;;;;;;;;17.70;45.10;;;;;;5087855;28;20031;-67
2022/12/20 03:15:41;;;;;;;;;;;17.60;45.10;;;;;;5087767;28;20007;-67
2022/12/20 03:18:07;;;;;;;;;;;17.50;45.30;;;;;;5088017;28;20007;-68
2022/12/20 03:20:32;;;;;;;;;;;17.40;45.40;;;;;;5087470;28;20364;-67
2022/12/20 03:22:58;;;;;;;;;;;17.40;45.60;;;;;;5088442;28;19928;-72
2022/12/20 03:25:24;;;;;;;;;;;17.30;45.80;;;;;;5109017;28;19924;-67
2022/12/20 03:27:49;;;;;;;;;;;17.30;46.00;;;;;;5109001;28;19920;-73
2022/12/20 03:30:15;;;;;;;;;;;17.20;46.10;;;;;;5090812;28;19927;-68
2022/12/20 03:32:40;;;;;;;;;;;17.10;46.20;;;;;;5109057;28;19920;-68
2022/12/20 03:35:06;;;;;;;;;;;17.10;46.40;;;;;;5085755;28;19970;-68
2022/12/20 03:37:32;;;;;;;;;;;17.10;46.60;;;;;;5077127;28;20583;-68
2022/12/20 03:40:01;;;;;;;;;;;17.00;47.40;;;;;;5095171;28;19921;-67
2022/12/20 03:42:26;;;;;;;;;;;17.00;46.80;;;;;;5076754;28;19970;-72
2022/12/20 03:44:52;;;;;;;;;;;17.00;46.80;;;;;;5076955;28;19920;-68
2022/12/20 03:47:17;;;;;;;;;;;16.90;46.80;;;;;;5076975;28;19924;-67
2022/12/20 03:49:43;;;;;;;;;;;16.90;46.90;;;;;;5095087;28;19991;-67
2022/12/20 03:52:10;;;;;;;;;;;16.90;47.00;;;;;;5095297;28;20361;-67
2022/12/20 03:54:36;;;;;;;;;;;16.90;47.00;;;;;;5076481;28;19920;-68
2022/12/20 03:57:02;;;;;;;;;;;16.90;46.90;;;;;;5094819;28;19920;-68
2022/12/20 03:59:28;;;;;;;;;;;17.00;47.00;;;;;;5076625;28;20427;-68
2022/12/20 04:01:53;;;;;;;;;;;17.00;46.90;;;;;;5076857;28;19960;-68
2022/12/20 04:04:19;;;;;;;;;;;17.10;46.90;;;;;;5094557;28;20338;-67
2022/12/20 04:06:45;;;;;;;;;;;17.10;46.70;;;;;;5094722;28;19967;-68
2022/12/20 04:09:10;;;;;;;;;;;17.20;46.60;;;;;;5076809;28;19920;-73
2022/12/20 04:11:38;;;;;;;;;;;17.30;46.50;;;;;;5076994;28;20439;-68
2022/12/20 04:14:04;;;;;;;;;;;17.30;46.30;;;;;;5076110;28;19920;-67
2022/12/20 04:16:31;;;;;;;;;;;17.40;46.20;;;;;;5094456;28;19928;-68
2022/12/20 04:18:56;;;;;;;;;;;17.40;46.10;;;;;;5094513;28;20370;-67
2022/12/20 04:21:23;;;;;;;;;;;17.40;46.00;;;;;;5076559;28;19928;-67
2022/12/20 04:23:49;;;;;;;;;;;17.50;46.00;;;;;;5075698;28;19924;-72
2022/12/20 04:26:14;;;;;;;;;;;17.50;46.00;;;;;;5094716;28;20018;-67
2022/12/20 04:28:40;;;;;;;;;;;17.50;46.00;;;;;;5094353;28;20412;-68
2022/12/20 04:31:05;;;;;;;;;;;17.50;45.90;;;;;;5076199;28;19924;-68
2022/12/20 04:33:31;;;;;;;;;;;17.50;45.90;;;;;;5094154;28;19920;-68
2022/12/20 04:35:57;;;;;;;;;;;17.40;45.90;;;;;;5075596;28;19927;-72
2022/12/20 04:38:22;;;;;;;;;;;17.40;46.10;;;;;;5076319;28;20097;-68
2022/12/20 04:40:48;;;;;;;;;;;17.40;46.20;;;;;;5094102;28;19926;-68
2022/12/20 04:43:14;;;;;;;;;;;17.30;46.30;;;;;;5075541;28;19928;-68
2022/12/20 04:45:40;;;;;;;;;;;17.20;46.50;;;;;;5093803;28;19931;-68
2022/12/20 04:48:05;;;;;;;;;;;17.20;46.60;;;;;;5074820;28;19920;-73
2022/12/20 04:50:31;;;;;;;;;;;17.10;46.70;;;;;;5093437;28;19920;-68
2022/12/20 04:55:42;;;;;;;;;;;17.00;46.90;;;;;;5075026;28;19919;-68
2022/12/20 04:58:07;;;;;;;;;;;17.00;47.00;;;;;;5075814;28;20270;-68
2022/12/20 05:00:33;;;;;;;;;;;17.00;47.10;;;;;;5058661;28;19926;-68
2022/12/20 05:02:59;;;;;;;;;;;16.90;47.10;;;;;;5075367;28;19920;-73
2022/12/20 05:05:25;;;;;;;;;;;16.90;47.10;;;;;;5093389;28;20018;-68
2022/12/20 05:07:50;;;;;;;;;;;16.90;47.20;;;;;;5075309;28;19920;-68
2022/12/20 05:10:16;;;;;;;;;;;16.90;47.20;;;;;;5075653;28;19920;-68
2022/12/20 05:12:41;;;;;;;;;;;16.80;47.30;;;;;;5092789;28;19920;-73
2022/12/20 05:15:07;;;;;;;;;;;16.80;47.40;;;;;;5074796;28;19920;-68
2022/12/20 05:17:33;;;;;;;;;;;16.90;47.40;;;;;;5075060;28;19924;-68
2022/12/20 05:19:59;;;;;;;;;;;16.90;47.40;;;;;;5075339;28;19966;-68
2022/12/20 05:27:56;;;;;;;;;;;16.90;47.50;;;;;;5075069;28;19924;-68
2022/12/20 05:30:21;;;;;;;;;;;16.90;47.40;;;;;;5093203;28;20360;-68
2022/12/20 05:32:47;;;;;;;;;;;16.90;47.30;;;;;;5074718;28;19920;-68
2022/12/20 05:35:12;;;;;;;;;;;17.00;47.30;;;;;;5092634;28;19938;-68
2022/12/20 05:37:38;;;;;;;;;;;17.00;47.20;;;;;;5074813;28;20031;-68
2022/12/20 05:40:03;;;;;;;;;;;17.10;47.20;;;;;;5092858;28;19920;-68
2022/12/20 05:42:29;;;;;;;;;;;17.10;47.10;;;;;;5074787;28;20320;-73
2022/12/20 05:44:55;;;;;;;;;;;17.10;46.90;;;;;;5092783;28;20007;-68
2022/12/20 05:47:20;;;;;;;;;;;17.20;46.90;;;;;;5074545;28;19920;-68
2022/12/20 05:49:46;;;;;;;;;;;17.20;46.80;;;;;;5092883;28;20287;-73
2022/12/20 05:52:11;;;;;;;;;;;17.20;46.70;;;;;;5074754;28;20379;-68
2022/12/20 05:54:37;;;;;;;;;;;17.30;46.70;;;;;;5074674;28;19993;-73
2022/12/20 05:57:02;;;;;;;;;;;17.30;46.70;;;;;;5074009;28;20435;-68
2022/12/20 05:59:28;;;;;;;;;;;17.30;46.70;;;;;;5074632;28;19930;-68
2022/12/20 06:01:53;;;;;;;;;;;17.30;46.60;;;;;;5092246;28;19920;-68
2022/12/20 06:04:19;;;;;;;;;;;17.30;46.70;;;;;;5074134;28;19924;-68
2022/12/20 06:06:45;;;;;;;;;;;17.30;46.70;;;;;;5092545;28;19924;-73
2022/12/20 06:09:10;;;;;;;;;;;17.20;46.80;;;;;;5074322;28;19920;-68
2022/12/20 06:11:36;;;;;;;;;;;17.10;46.90;;;;;;5092259;28;20015;-68
2022/12/20 06:14:02;;;;;;;;;;;17.10;47.00;;;;;;5092462;28;19924;-68
2022/12/20 06:16:28;;;;;;;;;;;17.10;47.20;;;;;;5092183;28;19970;-68
2022/12/20 06:18:53;;;;;;;;;;;17.00;47.20;;;;;;5074315;28;19973;-68
2022/12/20 06:21:19;;;;;;;;;;;17.00;47.40;;;;;;5074104;28;19924;-68
2022/12/20 06:23:44;;;;;;;;;;;16.90;47.40;;;;;;5073751;28;20003;-72
2022/12/20 06:26:10;;;;;;;;;;;16.90;47.60;;;;;;5092117;28;19920;-69
2022/12/20 06:28:41;;;;;;;;;;;16.90;47.70;;;;;;5074190;28;19927;-68
2022/12/20 06:31:07;;;;;;;;;;;16.80;47.80;;;;;;5091280;28;19924;-68
2022/12/20 06:33:33;;;;;;;;;;;16.80;47.90;;;;;;5072230;28;20423;-68
2022/12/20 06:35:59;;;;;;;;;;;16.80;49.00;;;;;;5072567;28;19928;-69
2022/12/20 06:38:24;;;;;;;;;;;16.80;50.50;;;;;;5090094;28;19920;-67
2022/12/20 06:40:50;;;;;;;;;;;16.80;51.60;;;;;;5089265;28;19949;-67
2022/12/20 06:43:15;;;;;;;;;;;16.80;52.10;;;;;;5070778;28;19978;-66
2022/12/20 06:45:41;;;;;;;;;;;16.80;52.40;;;;;;5086209;28;19920;-67
2022/12/20 06:48:07;;;;;;;;;;;16.80;52.80;;;;;;5088419;28;19959;-67
2022/12/20 06:50:32;;;;;;;;;;;16.90;53.00;;;;;;5067596;28;20456;-66
2022/12/20 06:52:58;;;;;;;;;;;16.90;53.20;;;;;;5086378;28;20364;-67
2022/12/20 06:55:23;;;;;;;;;;;17.00;53.50;;;;;;5084614;28;19950;-66
2022/12/20 06:57:49;;;;;;;;;;;17.00;53.90;;;;;;5067946;28;19928;-66
2022/12/20 07:00:15;;;;;;;;;;;17.00;53.80;;;;;;5084894;28;19973;-67
2022/12/20 07:02:41;;;;;;;;;;;17.00;53.80;;;;;;5066974;28;19927;-66
2022/12/20 07:05:06;;;;;;;;;;;17.00;54.10;;;;;;5061715;28;19932;-66
2022/12/20 07:07:32;;;;;;;;;;;17.00;54.10;;;;;;5067722;28;19933;-66
2022/12/20 07:09:58;;;;;;;;;;;17.10;54.10;;;;;;5066750;28;20035;-66
2022/12/20 07:12:23;;;;;;;;;;;17.10;54.20;;;;;;5071765;28;19971;-66
2022/12/20 07:14:49;;;;;;;;;;;17.00;54.20;;;;;;5088260;28;19985;-66
2022/12/20 07:17:15;;;;;;;;;;;17.10;54.30;;;;;;5069554;28;19920;-68
2022/12/20 07:19:41;;;;;;;;;;;17.00;54.40;;;;;;5072638;28;19920;-66
2022/12/20 07:22:06;;;;;;;;;;;17.00;54.50;;;;;;5086074;28;19932;-66
2022/12/20 07:24:33;;;;;;;;;;;17.10;54.60;;;;;;5069351;28;19935;-66
2022/12/20 07:26:58;;;;;;;;;;;17.10;54.80;;;;;;5049288;28;19963;-66
2022/12/20 07:29:24;;;;;;;;;;;17.10;54.90;;;;;;5071137;28;20605;-66
2022/12/20 07:31:50;;;;;;;;;;;17.10;54.90;;;;;;5070549;28;19923;-66
2022/12/20 07:34:15;;;;;;;;;;;17.10;54.90;;;;;;5055324;28;19924;-66
2022/12/20 07:36:41;;;;;;;;;;;17.10;54.90;;;;;;5052915;28;19966;-66
2022/12/20 07:39:07;;;;;;;;;;;17.10;54.80;;;;;;5054380;28;20039;-66
2022/12/20 07:41:32;;;;;;;;;;;17.10;54.70;;;;;;5059321;28;19931;-67
2022/12/20 07:43:58;;;;;;;;;;;17.00;54.50;;;;;;5071448;28;20019;-70
2022/12/20 07:46:24;;;;;;;;;;;17.00;54.40;;;;;;5072521;28;19927;-66
2022/12/20 07:48:49;;;;;;;;;;;17.00;54.40;;;;;;5057567;28;19935;-72
2022/12/20 07:51:17;;;;;;;;;;;16.90;54.60;;;;;;5057284;28;20549;-65
2022/12/20 07:53:45;;;;;;;;;;;16.90;55.30;;;;;;5070326;28;19928;-66
2022/12/20 07:56:11;;;;;;;;;;;16.90;55.80;;;;;;5067954;28;20322;-67
2022/12/20 07:58:39;;;;;;;;;;;16.90;56.20;;;;;;5075790;28;20326;-66
2022/12/20 08:01:05;;;;;;;;;;;17.00;56.30;;;;;;5054855;28;19920;-66
2022/12/20 08:03:35;;;;;;;;;;;17.10;56.30;;;;;;5073567;28;20623;-66
2022/12/20 08:06:02;;;;;;;;;;;17.00;56.10;;;;;;5064344;28;19928;-66
2022/12/20 08:08:30;;;;;;;;;;;17.10;56.10;;;;;;5075854;28;19978;-67
2022/12/20 08:10:56;;;;;;;;;;;17.10;56.00;;;;;;5059532;28;20034;-66
2022/12/20 08:13:22;;;;;;;;;;;17.10;56.00;;;;;;5061959;28;20451;-66
2022/12/20 08:15:48;;;;;;;;;;;17.10;56.00;;;;;;5056296;28;20594;-67
2022/12/20 08:18:15;;;;;;;;;;;17.20;56.10;;;;;;5074478;28;19924;-67
2022/12/20 08:20:40;;;;;;;;;;;17.20;56.30;;;;;;5075641;28;19986;-67
2022/12/20 08:23:06;;;;;;;;;;;17.20;56.20;;;;;;5058669;28;19955;-68
2022/12/20 08:25:33;;;;;;;;;;;17.20;56.10;;;;;;5076779;28;19928;-68
2022/12/20 08:28:00;;;;;;;;;;;17.20;56.10;;;;;;5055643;28;19955;-67
2022/12/20 08:30:26;;;;;;;;;;;17.20;56.20;;;;;;5077498;28;19924;-67
2022/12/20 08:32:51;;;;;;;;;;;17.20;56.20;;;;;;5055879;28;19920;-67
2022/12/20 08:35:17;;;;;;;;;;;17.20;56.30;;;;;;5055701;28;19921;-66
2022/12/20 08:37:42;;;;;;;;;;;17.20;56.30;;;;;;5072503;28;20368;-66
2022/12/20 08:40:08;;;;;;;;;;;17.20;56.30;;;;;;5058566;28;19928;-67
2022/12/20 08:42:34;;;;;;;;;;;17.20;56.40;;;;;;5054919;28;19924;-75
2022/12/20 08:44:59;;;;;;;;;;;17.20;56.40;;;;;;5073044;28;19961;-68
2022/12/20 08:47:25;;;;;;;;;;;17.20;56.40;;;;;;5073760;28;20330;-66
2022/12/20 08:49:50;;;;;;;;;;;17.20;56.50;;;;;;5052180;28;20406;-66
2022/12/20 08:52:16;;;;;;;;;;;17.20;56.40;;;;;;5055113;28;19931;-68
2022/12/20 08:54:41;;;;;;;;;;;17.20;56.30;;;;;;5054256;28;20386;-67
2022/12/20 08:57:07;;;;;;;;;;;17.20;56.30;;;;;;5063017;28;19932;-66
2022/12/20 08:59:33;;;;;;;;;;;17.30;56.50;;;;;;5061299;28;19924;-65
2022/12/20 09:01:58;;;;;;;;;;;17.30;56.50;;;;;;5044049;28;19935;-68
2022/12/20 09:04:24;;;;;;;;;;;17.30;56.40;;;;;;5069146;28;19928;-67
2022/12/20 09:06:49;;;;;;;;;;;17.30;56.50;;;;;;5075854;28;20801;-68
2022/12/20 09:09:15;;;;;;;;;;;17.30;56.60;;;;;;5072493;28;20372;-74
2022/12/20 09:11:40;;;;;;;;;;;17.30;56.60;;;;;;5068998;28;19921;-68
2022/12/20 09:14:07;;;;;;;;;;;17.30;56.60;;;;;;5071244;28;20295;-72
2022/12/20 09:16:32;;;;;;;;;;;17.30;56.50;;;;;;5068504;28;19979;-68
2022/12/20 09:18:59;;;;;;;;;;;17.30;56.60;;;;;;5072748;28;20401;-66
2022/12/20 09:21:25;;;;;;;;;;;17.30;56.60;;;;;;5071913;28;19920;-66
2022/12/20 09:23:52;;;;;;;;;;;17.30;56.50;;;;;;5066693;28;19928;-67
2022/12/20 09:26:19;;;;;;;;;;;17.30;56.30;;;;;;5055201;28;19925;-67
2022/12/20 09:28:44;;;;;;;;;;;17.40;56.40;;;;;;5053112;28;19921;-68
2022/12/20 09:31:12;;;;;;;;;;;17.40;56.50;;;;;;5057248;28;20488;-67
2022/12/20 09:33:38;;;;;;;;;;;17.40;56.40;;;;;;5051506;28;20007;-67
2022/12/20 09:36:04;;;;;;;;;;;17.40;56.60;;;;;;5058197;28;20019;-67
2022/12/20 09:38:30;;;;;;;;;;;17.40;57.10;;;;;;5054576;28;19981;-69
2022/12/20 09:40:58;;;;;;;;;;;17.40;57.20;;;;;;5054497;28;19947;-67
2022/12/20 09:43:24;;;;;;;;;;;17.40;57.30;;;;;;5054830;28;20009;-67
2022/12/20 09:45:51;;;;;;;;;;;17.40;57.30;;;;;;5053812;28;20476;-69
2022/12/20 09:48:20;;;;;;;;;;;17.40;57.20;;;;;;5050585;28;19936;-67
2022/12/20 09:56:12;;;;;;;;;;;17.50;58.20;;;;;;5055441;27;20440;-69
2022/12/20 10:01:23;;;;;;;;;;;17.50;59.00;;;;;;5058606;28;19957;-68
2022/12/20 10:03:49;;;;;;;;;;;17.50;59.20;;;;;;5031563;28;20091;-65
2022/12/20 10:08:56;;;;;;;;;;;17.60;59.50;;;;;;5091865;27;1869564;-64
2022/12/20 10:11:42;;;;;;;;;;;17.60;59.60;;;;;;5145276;27;19923;-65
2022/12/20 10:17:07;;;;;;;;;;;17.60;59.70;;;;;;5067659;27;19952;-66
2022/12/20 10:22:16;;;;;;;;;;;19.30;56.50;;;;;;5101095;27;1893482;-67
2022/12/20 10:24:44;;;;;;;;;;;20.60;53.40;;;;;;5129101;27;19924;-70
2022/12/20 10:27:13;;;;;;;;;;;21.50;50.70;;;;;;5137439;27;19929;-69
2022/12/20 10:29:38;;;;;;;;;;;22.40;48.30;;;;;;5140103;27;19923;-68
2022/12/20 10:32:09;;;;;;;;;;;22.90;46.80;;;;;;5141529;27;19919;-72
2022/12/20 10:34:35;;;;;;;;;;;23.30;45.90;;;;;;5135981;27;19923;-70
2022/12/20 10:37:15;;;;;;;;;;;23.50;45.20;;;;;;5132657;27;19930;-68
2022/12/20 10:39:43;;;;;;;;;;;23.70;44.50;;;;;;5138055;27;19923;-68
2022/12/20 10:42:26;;;;;;;;;;;23.80;44.00;;;;;;5140185;27;20011;-68
2022/12/20 10:44:52;;;;;;;;;;;23.80;43.90;;;;;;5153289;27;20401;-68
2022/12/20 10:47:36;;;;;;;;;;;23.80;43.80;;;;;;5157949;27;19922;-68
2022/12/20 10:50:13;;;;;;;;;;;23.90;43.80;;;;;;5142025;27;20009;-68
2022/12/20 10:52:39;;;;;;;;;;;23.90;43.60;;;;;;5151520;27;19923;-68
2022/12/20 10:55:24;;;;;;;;;;;24.00;43.60;;;;;;5134447;27;20702;-67
2022/12/20 10:57:50;;;;;;;;;;;24.00;43.40;;;;;;5134618;27;20413;-68
2022/12/20 11:00:27;;;;;;;;;;;24.10;43.30;;;;;;5157407;27;19931;-68
2022/12/20 11:03:06;;;;;;;;;;;24.20;43.00;;;;;;5152851;27;20202;-68
2022/12/20 11:05:32;;;;;;;;;;;24.30;42.80;;;;;;5130029;27;19967;-68
2022/12/20 11:07:59;;;;;;;;;;;24.30;42.60;;;;;;5134697;27;19927;-68
2022/12/20 11:10:26;;;;;;;;;;;24.40;42.70;;;;;;5155830;27;19957;-68
2022/12/20 11:12:53;;;;;;;;;;;24.40;43.30;;;;;;5143132;27;20206;-68
2022/12/20 11:15:20;;;;;;;;;;;24.80;41.90;;;;;;5141478;27;20175;-70
2022/12/20 11:17:47;;;;;;;;;;;25.10;41.40;;;;;;5158141;27;19936;-69
2022/12/20 11:20:33;;;;;;;;;;;25.50;40.90;;;;;;5139883;27;20726;-67
2022/12/20 11:23:18;;;;;;;;;;;25.40;40.10;;;;;;5157438;27;19923;-68
2022/12/20 11:28:38;;;;;;;;;;;25.10;41.00;;;;;;5113287;27;19926;-66
2022/12/20 11:31:10;;;;;;;;;;;24.80;41.50;;;;;;5092322;28;19929;-66
2022/12/20 11:33:49;;;;;;;;;;;24.80;42.00;;;;;;5100128;28;19924;-66
2022/12/20 11:36:35;;;;;;;;;;;25.10;41.60;;;;;;5096421;28;19988;-67
2022/12/20 11:39:09;;;;;;;;;;;25.40;40.90;;;;;;5089507;28;19931;-68
2022/12/20 11:41:46;;;;;;;;;;;25.80;40.30;;;;;;5095273;28;19920;-66
2022/12/20 11:47:01;;;;;;;;;;;26.10;39.60;;;;;;5068398;27;19916;-67
2022/12/20 11:49:47;;;;;;;;;;;25.90;39.50;;;;;;5050857;28;19928;-67
2022/12/20 11:52:32;;;;;;;;;;;25.80;40.40;;;;;;5049841;28;19955;-65
2022/12/20 11:55:04;;;;;;;;;;;25.60;39.80;;;;;;5053760;28;20253;-66
2022/12/20 11:57:35;;;;;;;;;;;25.50;39.90;;;;;;5049628;28;19924;-66
2022/12/20 12:00:02;;;;;;;;;;;25.20;40.10;;;;;;5047731;28;19925;-66
2022/12/20 12:02:49;;;;;;;;;;;24.90;40.60;;;;;;5066507;28;20261;-66
2022/12/20 12:05:19;;;;;;;;;;;24.80;41.10;;;;;;5068164;28;19932;-67
2022/12/20 12:07:47;;;;;;;;;;;24.70;41.30;;;;;;5050867;28;19925;-72
2022/12/20 12:10:16;;;;;;;;;;;24.50;41.30;;;;;;5053220;28;20015;-65
2022/12/20 12:12:42;;;;;;;;;;;24.50;41.50;;;;;;5054692;28;19925;-66
2022/12/20 12:15:28;;;;;;;;;;;24.10;42.00;;;;;;5046930;28;19965;-74
2022/12/20 12:17:59;;;;;;;;;;;23.70;42.80;;;;;;5044294;28;19932;-66
2022/12/20 12:20:44;;;;;;;;;;;23.70;43.40;;;;;;5052567;28;19976;-76
2022/12/20 12:23:15;;;;;;;;;;;23.80;43.30;;;;;;5048920;28;19975;-74
2022/12/20 12:25:40;;;;;;;;;;;24.00;42.80;;;;;;5045681;28;19947;-67
2022/12/20 12:28:06;;;;;;;;;;;24.10;42.50;;;;;;5045589;28;20596;-67
2022/12/20 12:30:36;;;;;;;;;;;24.20;42.30;;;;;;5050572;28;19932;-66
2022/12/20 12:33:04;;;;;;;;;;;24.40;42.00;;;;;;5050197;28;19931;-66
2022/12/20 12:43:50;;;;;;;;;;;25.10;41.10;;;;;;5087873;27;20441;-67
2022/12/20 12:46:19;;;;;;;;;;;25.20;40.80;;;;;;5092699;28;19932;-67
2022/12/20 12:48:48;;;;;;;;;;;25.20;40.60;;;;;;5086080;28;19924;-68
2022/12/20 12:51:14;;;;;;;;;;;25.20;40.60;;;;;;5082040;28;19938;-66
2022/12/20 12:53:42;;;;;;;;;;;25.10;40.70;;;;;;5081367;28;19928;-66
2022/12/20 12:56:28;;;;;;;;;;;24.90;40.80;;;;;;5112437;27;19924;-65
2022/12/20 12:59:14;;;;;;;;;;;24.70;41.00;;;;;;5081624;28;19928;-65
2022/12/20 13:02:00;;;;;;;;;;;24.60;41.20;;;;;;5084038;28;20400;-74
2022/12/20 13:04:27;;;;;;;;;;;24.40;41.40;;;;;;5082185;28;19928;-66
2022/12/20 13:09:35;;;;;;;;;;;24.20;41.70;;;;;;5082977;27;19926;-73
2022/12/20 13:12:21;;;;;;;;;;;24.10;41.90;;;;;;5056246;28;19921;-65
2022/12/20 13:14:47;;;;;;;;;;;24.00;42.10;;;;;;5055472;28;19928;-65
2022/12/20 13:20:00;;;;;;;;;;;23.70;42.60;;;;;;5073479;27;20503;-63
2022/12/20 13:22:25;;;;;;;;;;;23.50;43.30;;;;;;5070028;28;19932;-66
2022/12/20 13:25:01;;;;;;;;;;;23.40;43.70;;;;;;5072034;28;20899;-72
2022/12/20 13:27:42;;;;;;;;;;;23.40;44.20;;;;;;5068839;28;19924;-65
2022/12/20 13:35:27;;;;;;;;;;;23.60;44.20;;;;;;5078454;27;20369;-65
2022/12/20 13:38:03;;;;;;;;;;;23.60;44.40;;;;;;5064699;28;20018;-64
2022/12/20 13:46:18;;;;;;;;;;;23.90;44.60;;;;;;5085093;27;20398;-65
2022/12/20 13:51:26;;;;;;;;;;;24.60;43.40;;;;;;5092104;27;1867814;-63
2022/12/20 13:53:56;;;;;;;;;;;25.00;42.50;;;;;;5134609;27;20013;-66
2022/12/20 13:56:32;;;;;;;;;;;25.20;41.90;;;;;;5135255;27;20444;-69
2022/12/20 13:59:02;;;;;;;;;;;25.30;41.50;;;;;;5137389;27;19931;-68
2022/12/20 14:01:28;;;;;;;;;;;25.40;41.30;;;;;;5135380;27;19964;-68
2022/12/20 14:03:53;;;;;;;;;;;25.30;41.50;;;;;;5138196;27;20418;-68
2022/12/20 14:06:20;;;;;;;;;;;25.20;41.40;;;;;;5133384;27;20018;-68
2022/12/20 14:08:47;;;;;;;;;;;25.10;41.60;;;;;;5136520;27;20031;-69
2022/12/20 14:11:14;;;;;;;;;;;25.00;41.80;;;;;;5145172;27;19923;-68
2022/12/20 14:13:41;;;;;;;;;;;24.80;42.00;;;;;;5145943;27;20493;-67
2022/12/20 14:16:09;;;;;;;;;;;24.70;42.20;;;;;;5127371;27;19929;-69
2022/12/20 14:18:34;;;;;;;;;;;24.40;42.60;;;;;;5151854;27;19962;-68
2022/12/20 14:21:03;;;;;;;;;;;24.10;43.10;;;;;;5153161;27;20530;-69
2022/12/20 14:26:12;;;;;;;;;;;23.70;44.00;;;;;;5081053;28;19927;-66
2022/12/20 14:28:39;;;;;;;;;;;23.60;44.10;;;;;;5079675;28;19921;-65
2022/12/20 14:31:06;;;;;;;;;;;23.60;44.20;;;;;;5080214;28;20578;-66
2022/12/20 14:33:35;;;;;;;;;;;23.60;44.20;;;;;;5078594;28;19931;-66
2022/12/20 14:36:08;;;;;;;;;;;23.50;44.10;;;;;;5079483;28;19925;-66
2022/12/20 14:38:34;;;;;;;;;;;23.60;44.00;;;;;;5081018;28;20344;-66
2022/12/20 14:41:00;;;;;;;;;;;23.70;43.80;;;;;;5077881;28;20019;-65
2022/12/20 14:43:27;;;;;;;;;;;23.80;43.60;;;;;;5079763;28;19921;-66
2022/12/20 14:46:12;;;;;;;;;;;23.90;43.40;;;;;;5078715;28;19928;-75
2022/12/20 14:48:38;;;;;;;;;;;24.00;43.10;;;;;;5077860;28;19983;-65
2022/12/20 14:51:04;;;;;;;;;;;24.20;42.70;;;;;;5076448;28;19963;-67
2022/12/20 14:53:30;;;;;;;;;;;24.30;42.50;;;;;;5080166;28;19928;-67
2022/12/20 14:55:55;;;;;;;;;;;24.20;42.50;;;;;;5076392;28;20014;-73
2022/12/20 14:58:22;;;;;;;;;;;24.30;42.70;;;;;;5076466;28;20659;-67
2022/12/20 15:01:08;;;;;;;;;;;24.40;42.60;;;;;;5078635;28;19928;-69
2022/12/20 15:03:33;;;;;;;;;;;24.60;42.40;;;;;;5077493;28;19970;-69
2022/12/20 15:05:59;;;;;;;;;;;24.70;42.10;;;;;;5077460;28;19928;-67
2022/12/20 15:13:49;;;;;;;;;;;24.80;42.00;;;;;;5122842;27;19911;-66
2022/12/20 15:16:17;;;;;;;;;;;24.70;42.10;;;;;;5112389;28;19927;-66
2022/12/20 15:18:43;;;;;;;;;;;24.60;42.40;;;;;;5095946;28;19920;-68
2022/12/20 15:21:12;;;;;;;;;;;24.50;42.60;;;;;;5113582;28;19969;-67
2022/12/20 15:23:42;;;;;;;;;;;24.40;42.90;;;;;;5094535;28;19988;-67
2022/12/20 15:26:09;;;;;;;;;;;24.20;43.00;;;;;;5126214;27;19927;-68
2022/12/20 15:28:34;;;;;;;;;;;23.90;43.40;;;;;;5096800;28;19920;-68
2022/12/20 15:31:01;;;;;;;;;;;23.80;43.80;;;;;;5096900;28;19927;-68
2022/12/20 15:33:28;;;;;;;;;;;23.70;44.20;;;;;;5113899;28;19938;-67
2022/12/20 15:35:54;;;;;;;;;;;23.50;44.40;;;;;;5114342;28;19923;-69
2022/12/20 15:38:21;;;;;;;;;;;23.40;44.70;;;;;;5112924;28;19924;-69